Data for 08/22/2014

Time Sea-Level Adjusted Pressure Absolute Pressure Temperature Relative Humidity Dew Point   
(mb) (inHg) (mb) (inHg) (C) (F) (%) (C) (F)
00:05 1021 30.15 850 25.1 12.1 53.9 84 9.6 49.2
00:10 1021 30.15 850 25.1 12.1 53.7 84 9.5 49.1
00:15 1021 30.15 850 25.1 12 53.7 84 9.5 49.1
00:20 1021 30.15 850 25.1 12.1 53.8 84 9.6 49.2
00:25 1021 30.15 850 25.1 12.1 53.7 84 9.4 48.9
00:30 1021 30.15 850 25.1 12 53.6 84 9.4 49
00:35 1021 30.15 850 25.1 12 53.6 84 9.5 49.1
00:40 1021 30.15 850 25.1 11.8 53.3 88 10 49.9
00:45 1021 30.15 850 25.1 11.7 53 89 9.9 49.9
00:50 1021 30.15 850 25.1 11.6 52.8 91 10.1 50.2
00:55 1021 30.15 850 25.1 11.4 52.6 91 10.1 50.2
01:00 1021 30.15 850 25.1 11.4 52.4 91 10 49.9
01:05 1021 30.15 850 25.1 11.4 52.4 91 9.9 49.8
01:10 1021 30.15 850 25.1 11.4 52.5 90 9.7 49.5
01:15 1021 30.15 850 25.1 11.4 52.6 90 9.9 49.8
01:20 1021 30.15 850 25.1 11.5 52.6 89 9.8 49.6
01:25 1021 30.15 850 25.1 11.4 52.6 90 9.9 49.8
01:30 1021 30.15 850 25.1 11.4 52.5 90 9.9 49.8
01:35 1021 30.15 850 25.1 11.4 52.4 91 9.9 49.8
01:40 1021 30.15 850 25.1 11.3 52.3 91 9.9 49.7
01:45 1021 30.15 850 25.1 11.2 52.2 91 9.8 49.6
01:50 1021 30.15 850 25.1 11.2 52.2 91 9.8 49.6
01:55 1021 30.15 850 25.1 11.2 52.2 89 9.5 49
02:00 1021 30.15 850 25.1 11.3 52.4 89 9.5 49.2
02:05 1021 30.15 850 25.1 11.4 52.6 89 9.7 49.5
02:10 1021 30.15 850 25.1 11.5 52.8 89 9.8 49.6
02:15 1021 30.15 850 25.1 11.5 52.7 89 9.9 49.7
02:20 1021 30.15 850 25.1 11.4 52.4 90 9.8 49.7
02:25 1021 30.15 850 25.1 11.2 52.2 91 9.7 49.5
02:30 1021 30.15 850 25.1 11.1 51.9 90 9.6 49.2
02:35 1021 30.15 850 25.1 10.8 51.5 90 9.3 48.7
02:40 1021 30.15 850 25.1 10.7 51.2 90 9.2 48.5
02:45 1021 30.15 850 25.1 10.6 51 91 9.2 48.5
02:50 1021 30.15 850 25.1 10.6 51 91 9.2 48.6
02:55 1021 30.15 850 25.1 10.5 50.8 90 8.9 48.1
03:00 1021 30.15 850 25.1 10.2 50.4 90 8.6 47.5
03:05 1021 30.15 850 25.1 10.1 50.1 90 8.6 47.4
03:10 1021 30.15 850 25.1 10 49.9 91 8.5 47.3
03:15 1021 30.15 851 25.13 9.9 49.9 91 8.5 47.4
03:20 1021 30.15 851 25.13 9.9 49.8 91 8.5 47.4
03:25 1021 30.15 851 25.13 9.9 49.7 91 8.5 47.4
03:30 1021 30.15 851 25.13 9.8 49.7 91 8.5 47.3
03:35 1022 30.18 851 25.13 9.7 49.4 92 8.4 47.2
03:40 1022 30.18 851 25.13 9.5 49.1 92 8.3 46.9
03:45 1021 30.15 851 25.13 9.5 49 92 8.3 47
03:50 1021 30.15 851 25.13 9.5 49.1 93 8.4 47
03:55 1021 30.15 851 25.13 9.5 49.1 93 8.4 47.1
04:00 1021 30.15 851 25.13 9.6 49.2 93 8.4 47.2
04:05 1021 30.15 851 25.13 9.5 49.2 93 8.4 47.1
04:10 1022 30.18 851 25.13 9.5 49.1 92 8.3 46.9
04:15 1022 30.18 851 25.13 9.4 49 92 8.2 46.8
04:20 1022 30.18 851 25.13 9.4 49 92 8.2 46.8
04:25 1022 30.18 851 25.13 9.5 49.2 92 8.4 47
04:30 1022 30.18 851 25.13 9.5 49.1 92 8.2 46.8
04:35 1022 30.18 851 25.13 9.5 49.2 91 8.2 46.7
04:40 1022 30.18 851 25.13 9.5 49.1 91 8.2 46.7
04:45 1022 30.18 851 25.13 9.6 49.2 91 8.1 46.6
04:50 1021 30.15 851 25.13 9.5 49.1 91 8.1 46.6
04:55 1021 30.15 850 25.1 9.4 48.8 92 8.2 46.7
05:00 1021 30.15 851 25.13 9.3 48.7 93 8.2 46.7
05:05 1021 30.15 851 25.13 9.3 48.7 93 8.2 46.7
05:10 1021 30.15 850 25.1 9.3 48.7 93 8.1 46.7
05:15 1021 30.15 850 25.1 9.2 48.6 93 8.1 46.6
05:20 1021 30.15 850 25.1 9.2 48.6 93 8.1 46.6
05:25 1021 30.15 850 25.1 9.3 48.7 93 8.2 46.7
05:30 1021 30.15 850 25.1 9.3 48.7 93 8.1 46.6
05:35 1021 30.15 850 25.1 9.3 48.7 92 8.1 46.5
05:40 1021 30.15 850 25.1 9.4 48.9 91 8 46.4
05:45 1020 30.12 850 25.1 9.5 49.1 90 8 46.3
05:50 1020 30.12 850 25.1 9.6 49.3 90 8 46.5
05:55 1020 30.12 850 25.1 9.6 49.3 90 8.1 46.5
06:00 1020 30.12 849 25.07 9.6 49.3 90 8.1 46.6
06:05 1020 30.12 849 25.07 9.5 49.1 90 8 46.3
06:10 1020 30.12 849 25.07 9.5 49.1 90 7.9 46.2
06:15 1020 30.12 849 25.07 9.6 49.2 89 7.8 46.1
06:20 1020 30.12 849 25.07 9.6 49.3 88 7.8 46
06:25 1020 30.12 849 25.07 9.6 49.3 89 7.9 46.2
06:30 1020 30.12 849 25.07 9.6 49.3 89 7.9 46.2
06:35 1020 30.12 849 25.07 9.6 49.4 89 7.9 46.2
06:40 1020 30.12 849 25.07 9.7 49.5 89 7.9 46.3
06:45 1020 30.12 849 25.07 9.9 49.7 88 8 46.3
06:50 1020 30.12 849 25.07 10 50 87 8 46.4
06:55 1020 30.12 850 25.1 10.1 50.2 87 8.1 46.6
07:00 1020 30.12 850 25.1 10.2 50.4 86 8 46.4
07:05 1021 30.15 850 25.1 10.5 50.8 86 8.2 46.7
07:10 1021 30.15 850 25.1 10.3 50.6 88 8.4 47.1
07:15 1020 30.12 850 25.1 10.2 50.4 89 8.5 47.3
07:20 1020 30.12 850 25.1 10.1 50.1 90 8.4 47.2
07:25 1020 30.12 849 25.07 10 50 90 8.4 47.2
07:30 1020 30.12 849 25.07 10 50 90 8.5 47.3
07:35 1020 30.12 850 25.1 10 49.9 89 8.3 46.9
07:40 1020 30.12 849 25.07 10.1 50.2 89 8.5 47.2
07:45 1020 30.12 849 25.07 10.3 50.5 89 8.6 47.5
07:50 1020 30.12 850 25.1 10.3 50.5 90 8.6 47.6
07:55 1021 30.15 850 25.1 10.5 50.8 89 8.8 47.8
08:00 1021 30.15 850 25.1 10.6 51.1 88 8.7 47.7
08:05 1021 30.15 850 25.1 10.6 51.1 88 8.6 47.6
08:10 1021 30.15 850 25.1 10.5 51 87 8.5 47.4
08:15 1021 30.15 850 25.1 10.6 51.1 87 8.6 47.5
08:20 1021 30.15 850 25.1 10.9 51.6 86 8.7 47.7
08:25 1021 30.15 850 25.1 11.3 52.3 84 8.8 47.8
08:30 1021 30.15 850 25.1 11.5 52.6 84 8.8 47.9
08:35 1021 30.15 850 25.1 11.4 52.5 85 8.9 48.1
08:40 1021 30.15 850 25.1 11.5 52.7 84 9 48.2
08:45 1021 30.15 850 25.1 11.4 52.5 84 8.9 47.9
08:50 1021 30.15 850 25.1 11.5 52.8 83 8.8 47.9
08:55 1021 30.15 850 25.1 11.3 52.3 85 8.8 47.9
09:00 1021 30.15 850 25.1 11.1 52 86 8.9 48.1
09:05 1021 30.15 850 25.1 11.2 52.2 84 8.6 47.5
09:10 1021 30.15 850 25.1 11.3 52.4 83 8.5 47.4
09:15 1021 30.15 850 25.1 11.8 53.2 81 8.7 47.6
09:20 1021 30.15 850 25.1 11.9 53.5 83 9.1 48.3
09:25 1021 30.15 850 25.1 11.7 53 83 8.9 48.1
09:30 1021 30.15 850 25.1 12.1 53.7 80 8.8 47.8
09:35 1021 30.15 850 25.1 12.2 53.9 79 8.7 47.7
09:40 1021 30.15 850 25.1 12.1 53.8 80 8.8 47.8
09:45 1021 30.15 850 25.1 12.3 54.1 79 8.8 47.8
09:50 1021 30.15 850 25.1 12.6 54.6 77 8.6 47.5
09:55 1021 30.15 850 25.1 12.2 54 79 8.6 47.6
10:00 1020 30.12 850 25.1 12.8 55 75 8.6 47.4
10:05 1020 30.12 850 25.1 13.1 55.5 77 9.1 48.3
10:10 1020 30.12 850 25.1 13.1 55.6 77 9.1 48.4
10:15 1020 30.12 850 25.1 13 55.4 75 8.6 47.6
10:20 1020 30.12 850 25.1 12.7 54.8 75 8.4 47.2
10:25 1020 30.12 850 25.1 13.6 56.5 72 8.7 47.7
10:30 1020 30.12 850 25.1 14.4 57.8 70 9 48.1
10:35 1020 30.12 850 25.1 14.4 57.8 71 9.1 48.4
10:40 1020 30.12 849 25.07 13.8 56.8 71 8.7 47.6
10:45 1020 30.12 849 25.07 13.3 56 75 9 48.3
10:50 1020 30.12 849 25.07 13.6 56.4 71 8.5 47.2
10:55 1020 30.12 849 25.07 14.1 57.4 70 8.9 47.9
11:00 1020 30.12 849 25.07 14.5 58 67 8.5 47.3
11:05 1020 30.12 849 25.07 14.1 57.4 70 8.9 48
11:10 1020 30.12 849 25.07 14.5 58.1 67 8.4 47.2
11:15 1020 30.12 849 25.07 14.5 58 68 8.6 47.6
11:20 1020 30.12 849 25.07 14.2 57.5 70 8.9 48
11:25 1020 30.12 849 25.07 14.2 57.5 69 8.6 47.5
11:30 1020 30.12 849 25.07 14.7 58.5 68 8.9 48.1
11:35 1020 30.12 849 25.07 15.2 59.4 65 8.8 47.9
11:40 1020 30.12 849 25.07 15.3 59.5 65 8.8 47.9
11:45 1020 30.12 849 25.07 15.4 59.7 66 9.2 48.5
11:50 1020 30.12 849 25.07 15.5 59.9 65 9.1 48.3
11:55 1020 30.12 849 25.07 15.6 60.1 66 9.3 48.7
12:00 1020 30.12 849 25.07 15.6 60.1 65 9 48.3
12:05 1020 30.12 849 25.07 15.4 59.6 67 9.4 48.9
12:10 1020 30.12 849 25.07 15.7 60.3 66 9.4 49
12:15 1020 30.12 849 25.07 15.2 59.4 64 8.6 47.5
12:20 1020 30.12 849 25.07 15 59 68 9.3 48.7
12:25 1020 30.12 849 25.07 15.1 59.1 67 9.1 48.4
12:30 1020 30.12 849 25.07 15 58.9 68 9.1 48.3
12:35 1020 30.12 849 25.07 14.8 58.7 67 8.9 48
12:40 1020 30.12 849 25.07 14.6 58.3 68 8.9 48
12:45 1020 30.12 849 25.07 14.5 58 70 9.2 48.5
12:50 1020 30.12 849 25.07 14.8 58.7 66 8.6 47.5
12:55 1020 30.12 849 25.07 15.6 60.1 65 9.1 48.4
13:00 1020 30.12 849 25.07 15.9 60.6 65 9.4 48.9
13:05 1020 30.12 849 25.07 15.2 59.3 66 9 48.1
13:10 1020 30.12 849 25.07 15.3 59.5 67 9.3 48.7
13:15 1020 30.12 849 25.07 14.6 58.2 69 8.9 48
13:20 1020 30.12 849 25.07 14.9 58.7 66 8.7 47.7
13:25 1020 30.12 849 25.07 15.5 59.9 65 8.9 48.1
13:30 1020 30.12 849 25.07 15.4 59.7 67 9.3 48.7
13:35 1020 30.12 849 25.07 15.2 59.4 67 9.1 48.5
13:40 1020 30.12 849 25.07 15 59.1 72 10 50.1
13:45 1020 30.12 849 25.07 14.8 58.7 75 10.5 50.9
13:50 1020 30.12 849 25.07 14.4 57.9 74 9.9 49.8
13:55 1020 30.12 849 25.07 13.6 56.5 77 9.6 49.3
14:00 1019 30.09 849 25.07 13.5 56.3 78 9.7 49.5
14:05 1019 30.09 849 25.07 13.8 56.8 78 9.9 49.9
14:10 1019 30.09 848 25.04 13.8 56.8 77 9.8 49.6
14:15 1019 30.09 848 25.04 13.6 56.5 80 10.2 50.4
14:20 1019 30.09 848 25.04 13.7 56.7 79 10.1 50.2
14:25 1019 30.09 849 25.07 13.8 56.9 76 9.8 49.6
14:30 1019 30.09 849 25.07 13.9 56.9 76 9.7 49.5
14:35 1019 30.09 849 25.07 14 57.2 72 9.1 48.5
14:40 1019 30.09 849 25.07 14.1 57.4 73 9.4 48.9
14:45 1019 30.09 849 25.07 14.1 57.3 73 9.4 48.8
14:50 1019 30.09 849 25.07 13.8 56.9 75 9.6 49.3
14:55 1019 30.09 849 25.07 13.7 56.7 74 9.3 48.7
15:00 1020 30.12 849 25.07 13.6 56.6 74 9.1 48.3
15:05 1020 30.12 849 25.07 13.7 56.6 73 9 48.2
15:10 1020 30.12 849 25.07 13.7 56.6 73 9 48.1
15:15 1020 30.12 849 25.07 13.6 56.5 74 9.2 48.5
15:20 1020 30.12 849 25.07 13.6 56.4 80 10.1 50.3
15:25 1020 30.12 849 25.07 13.5 56.2 82 10.4 50.8
15:30 1020 30.12 849 25.07 13.3 56 84 10.6 51.1
15:35 1020 30.12 849 25.07 13.4 56.1 80 10 50.1
15:40 1020 30.12 849 25.07 13.4 56 79 9.8 49.7
15:45 1020 30.12 849 25.07 13.4 56.1 78 9.7 49.5
15:50 1020 30.12 849 25.07 13.4 56 76 9.3 48.7
15:55 1020 30.12 849 25.07 13.4 56.1 78 9.7 49.5
16:00 1020 30.12 849 25.07 13.2 55.7 79 9.6 49.3
16:05 1020 30.12 849 25.07 12.9 55.2 80 9.5 49.1
16:10 1019 30.09 849 25.07 12.8 55 78 9.1 48.3
16:15 1019 30.09 849 25.07 12.6 54.6 80 9.2 48.5
16:20 1019 30.09 849 25.07 12.4 54.4 79 9 48.2
16:25 1020 30.12 849 25.07 12.4 54.4 78 8.7 47.7
16:30 1019 30.09 849 25.07 12.6 54.7 77 8.6 47.5
16:35 1019 30.09 849 25.07 12.5 54.6 78 8.8 47.8
16:40 1019 30.09 849 25.07 12.7 54.9 78 9 48.2
16:45 1019 30.09 849 25.07 13 55.5 76 8.9 48.1
16:50 1020 30.12 849 25.07 13.4 56 74 8.9 48.1
16:55 1020 30.12 849 25.07 13.6 56.5 76 9.5 49.2
17:00 1019 30.09 849 25.07 13.8 56.8 72 8.8 47.9
17:05 1020 30.12 849 25.07 13.9 57.1 72 9.1 48.3
17:10 1020 30.12 849 25.07 14 57.1 69 8.4 47.1
17:15 1020 30.12 849 25.07 13.8 56.8 71 8.7 47.6
17:20 1020 30.12 849 25.07 13.9 56.9 71 8.8 47.8
17:25 1020 30.12 849 25.07 13.7 56.7 71 8.6 47.5
17:30 1020 30.12 849 25.07 13.7 56.7 73 9 48.2
17:35 1020 30.12 849 25.07 13.9 57 71 8.7 47.6
17:40 1020 30.12 849 25.07 13.8 56.8 76 9.6 49.2
17:45 1020 30.12 849 25.07 13.5 56.2 76 9.4 48.9
17:50 1020 30.12 849 25.07 13.2 55.8 75 8.9 48.1
17:55 1020 30.12 849 25.07 13.2 55.8 76 9 48.3
18:00 1020 30.12 849 25.07 13.2 55.8 74 8.6 47.5
18:05 1020 30.12 849 25.07 13.3 56 72 8.4 47
18:10 1020 30.12 849 25.07 13.2 55.8 72 8.4 47.1
18:15 1020 30.12 849 25.07 13.1 55.5 73 8.3 46.9
18:20 1020 30.12 849 25.07 12.9 55.1 71 7.8 46.1
18:25 1020 30.12 849 25.07 12.8 55.1 72 7.9 46.2
18:30 1020 30.12 849 25.07 12.9 55.1 73 8.2 46.8
18:35 1020 30.12 849 25.07 12.8 55.1 72 8 46.5
18:40 1020 30.12 849 25.07 12.7 54.9 74 8.2 46.7
18:45 1020 30.12 849 25.07 12.6 54.6 76 8.5 47.3
18:50 1020 30.12 849 25.07 12.6 54.7 76 8.5 47.4
18:55 1020 30.12 849 25.07 12.7 54.9 75 8.5 47.3
19:00 1020 30.12 849 25.07 12.9 55.1 76 8.8 47.8
19:05 1020 30.12 849 25.07 12.9 55.2 75 8.5 47.3
19:10 1020 30.12 849 25.07 12.9 55.1 77 8.9 48.1
19:15 1020 30.12 849 25.07 12.8 55.1 77 8.9 48.1
19:20 1020 30.12 849 25.07 12.8 55 77 8.8 47.9
19:25 1020 30.12 849 25.07 12.7 54.8 78 9 48.3
19:30 1020 30.12 849 25.07 12.6 54.7 79 9.1 48.5
19:35 1020 30.12 849 25.07 12.6 54.6 79 9.1 48.4
19:40 1020 30.12 849 25.07 12.5 54.4 81 9.3 48.8
19:45 1020 30.12 849 25.07 12.2 53.9 83 9.3 48.8
19:50 1020 30.12 849 25.07 12 53.5 84 9.4 48.9
19:55 1020 30.12 849 25.07 11.9 53.3 85 9.4 49
20:00 1020 30.12 850 25.1 11.7 53.1 88 9.8 49.6
20:05 1021 30.15 850 25.1 11.7 53 88 9.8 49.7
20:10 1020 30.12 850 25.1 11.5 52.7 88 9.6 49.3
20:15 1021 30.15 850 25.1 11.4 52.6 91 9.9 49.9
20:20 1021 30.15 850 25.1 11.3 52.4 91 9.9 49.9
20:25 1021 30.15 850 25.1 11.2 52.1 91 9.8 49.7
20:30 1021 30.15 850 25.1 11.1 51.9 92 9.8 49.7
20:35 1021 30.15 850 25.1 11 51.8 92 9.8 49.6
20:40 1020 30.12 850 25.1 10.9 51.7 92 9.8 49.6
20:45 1020 30.12 850 25.1 10.9 51.6 92 9.7 49.4
20:50 1020 30.12 850 25.1 10.8 51.5 92 9.6 49.3
20:55 1020 30.12 850 25.1 10.9 51.6 92 9.7 49.5
21:00 1020 30.12 850 25.1 10.9 51.5 92 9.6 49.3
21:05 1020 30.12 850 25.1 10.8 51.5 92 9.6 49.3
21:10 1020 30.12 850 25.1 10.9 51.6 93 9.7 49.5
21:15 1020 30.12 850 25.1 10.9 51.6 92 9.7 49.5
21:20 1020 30.12 850 25.1 10.7 51.3 93 9.6 49.2
21:25 1020 30.12 849 25.07 10.7 51.2 93 9.5 49.2
21:30 1020 30.12 849 25.07 10.8 51.4 93 9.7 49.5
21:35 1020 30.12 849 25.07 10.8 51.4 93 9.7 49.4
21:40 1020 30.12 849 25.07 10.7 51.2 93 9.6 49.2
21:45 1020 30.12 849 25.07 10.7 51.2 93 9.6 49.2
21:50 1020 30.12 849 25.07 10.7 51.3 93 9.6 49.4
21:55 1020 30.12 849 25.07 10.7 51.2 93 9.6 49.3
22:00 1020 30.12 849 25.07 10.6 51 93 9.5 49.1
22:05 1020 30.12 849 25.07 10.5 51 93 9.5 49
22:10 1020 30.12 849 25.07 10.5 51 93 9.5 49.1
22:15 1020 30.12 849 25.07 10.6 51 93 9.5 49.1
22:20 1020 30.12 849 25.07 10.5 51 92 9.4 48.9
22:25 1020 30.12 849 25.07 10.6 51.1 92 9.4 49
22:30 1020 30.12 849 25.07 10.7 51.3 93 9.6 49.2
22:35 1020 30.12 849 25.07 10.8 51.4 93 9.6 49.3
22:40 1020 30.12 849 25.07 10.9 51.6 93 9.8 49.6
22:45 1020 30.12 849 25.07 10.9 51.6 93 9.7 49.5
22:50 1020 30.12 849 25.07 10.9 51.5 92 9.7 49.4
22:55 1020 30.12 849 25.07 10.9 51.6 92 9.7 49.5
23:00 1020 30.12 849 25.07 10.9 51.7 93 9.8 49.6
23:05 1020 30.12 849 25.07 11 51.8 93 9.9 49.8
23:10 1020 30.12 849 25.07 11.1 51.9 93 9.9 49.8
23:15 1020 30.12 849 25.07 11.1 51.9 92 9.9 49.8
23:20 1020 30.12 849 25.07 10.9 51.6 92 9.6 49.3
23:25 1020 30.12 849 25.07 10.8 51.5 91 9.5 49
23:30 1020 30.12 849 25.07 10.8 51.5 91 9.4 49
23:35 1020 30.12 849 25.07 10.8 51.4 92 9.5 49.1
23:40 1020 30.12 849 25.07 10.8 51.4 92 9.5 49.2
23:45 1019 30.09 849 25.07 10.8 51.5 92 9.5 49.2
23:50 1019 30.09 849 25.07 10.8 51.4 92 9.5 49.2
23:55 1019 30.09 849 25.07 10.7 51.2 93 9.5 49.1
24:00 1019 30.09 849 25.07 10.6 51 93 9.5 49